sensor_id;sensor_type;location;lat;lon;timestamp;P1;durP1;ratioP1;P2;durP2;ratioP2
58874;SDS011;44652;49.040;12.126;2022-09-09T00:01:28;10.30;;;3.13;;
58874;SDS011;44652;49.040;12.126;2022-09-09T00:03:50;5.25;;;3.28;;
58874;SDS011;44652;49.040;12.126;2022-09-09T00:06:28;4.07;;;2.90;;
58874;SDS011;44652;49.040;12.126;2022-09-09T00:14:27;3.70;;;2.67;;
58874;SDS011;44652;49.040;12.126;2022-09-09T00:16:55;5.22;;;2.97;;
58874;SDS011;44652;49.040;12.126;2022-09-09T00:19:39;5.32;;;3.15;;
58874;SDS011;44652;49.040;12.126;2022-09-09T00:22:54;6.25;;;3.45;;
58874;SDS011;44652;49.040;12.126;2022-09-09T00:25:34;7.40;;;3.25;;
58874;SDS011;44652;49.040;12.126;2022-09-09T00:30:41;5.82;;;3.60;;
58874;SDS011;44652;49.040;12.126;2022-09-09T00:33:10;7.22;;;3.38;;
58874;SDS011;44652;49.040;12.126;2022-09-09T00:35:42;12.15;;;3.63;;
58874;SDS011;44652;49.040;12.126;2022-09-09T00:38:28;5.47;;;3.38;;
58874;SDS011;44652;49.040;12.126;2022-09-09T00:41:06;6.25;;;3.20;;
58874;SDS011;44652;49.040;12.126;2022-09-09T00:52:00;8.40;;;3.80;;
58874;SDS011;44652;49.040;12.126;2022-09-09T00:54:32;6.45;;;3.63;;
58874;SDS011;44652;49.040;12.126;2022-09-09T00:57:27;7.88;;;3.70;;
58874;SDS011;44652;49.040;12.126;2022-09-09T01:02:45;8.20;;;3.88;;
58874;SDS011;44652;49.040;12.126;2022-09-09T01:05:37;4.78;;;3.60;;
58874;SDS011;44652;49.040;12.126;2022-09-09T01:08:32;7.05;;;4.00;;
58874;SDS011;44652;49.040;12.126;2022-09-09T01:11:01;9.52;;;4.32;;
58874;SDS011;44652;49.040;12.126;2022-09-09T01:13:29;7.90;;;3.88;;
58874;SDS011;44652;49.040;12.126;2022-09-09T01:16:04;13.52;;;4.13;;
58874;SDS011;44652;49.040;12.126;2022-09-09T01:18:44;6.05;;;4.10;;
58874;SDS011;44652;49.040;12.126;2022-09-09T01:21:26;6.05;;;4.70;;
58874;SDS011;44652;49.040;12.126;2022-09-09T01:27:06;9.20;;;5.00;;
58874;SDS011;44652;49.040;12.126;2022-09-09T01:29:33;8.32;;;4.38;;
58874;SDS011;44652;49.040;12.126;2022-09-09T01:32:48;8.02;;;4.53;;
58874;SDS011;44652;49.040;12.126;2022-09-09T01:35:12;8.05;;;4.80;;
58874;SDS011;44652;49.040;12.126;2022-09-09T01:37:53;7.85;;;4.80;;
58874;SDS011;44652;49.040;12.126;2022-09-09T01:40:20;11.65;;;5.43;;
58874;SDS011;44652;49.040;12.126;2022-09-09T01:42:48;8.75;;;5.05;;
58874;SDS011;44652;49.040;12.126;2022-09-09T01:45:15;8.98;;;5.18;;
58874;SDS011;44652;49.040;12.126;2022-09-09T01:47:42;9.63;;;5.43;;
58874;SDS011;44652;49.040;12.126;2022-09-09T01:50:31;11.02;;;5.55;;
58874;SDS011;44652;49.040;12.126;2022-09-09T01:52:59;10.68;;;6.70;;
58874;SDS011;44652;49.040;12.126;2022-09-09T01:55:49;7.25;;;6.30;;
58874;SDS011;44652;49.040;12.126;2022-09-09T01:58:28;11.23;;;6.03;;
58874;SDS011;44652;49.040;12.126;2022-09-09T02:01:06;8.80;;;5.57;;
58874;SDS011;44652;49.040;12.126;2022-09-09T02:03:34;7.95;;;4.95;;
58874;SDS011;44652;49.040;12.126;2022-09-09T02:09:07;8.00;;;5.70;;
58874;SDS011;44652;49.040;12.126;2022-09-09T02:11:39;7.97;;;5.65;;
58874;SDS011;44652;49.040;12.126;2022-09-09T02:14:16;7.60;;;5.28;;
58874;SDS011;44652;49.040;12.126;2022-09-09T02:16:59;6.18;;;4.82;;
58874;SDS011;44652;49.040;12.126;2022-09-09T02:20:12;7.55;;;5.22;;
58874;SDS011;44652;49.040;12.126;2022-09-09T02:22:47;11.82;;;5.82;;
58874;SDS011;44652;49.040;12.126;2022-09-09T02:25:21;9.27;;;5.82;;
58874;SDS011;44652;49.040;12.126;2022-09-09T02:27:53;8.45;;;5.90;;
58874;SDS011;44652;49.040;12.126;2022-09-09T02:30:21;8.48;;;5.25;;
58874;SDS011;44652;49.040;12.126;2022-09-09T02:32:52;7.13;;;5.55;;
58874;SDS011;44652;49.040;12.126;2022-09-09T02:35:39;7.38;;;5.60;;
58874;SDS011;44652;49.040;12.126;2022-09-09T02:38:11;11.10;;;6.35;;
58874;SDS011;44652;49.040;12.126;2022-09-09T02:40:44;7.95;;;6.72;;
58874;SDS011;44652;49.040;12.126;2022-09-09T02:43:12;8.07;;;6.20;;
58874;SDS011;44652;49.040;12.126;2022-09-09T02:45:46;9.18;;;5.80;;
58874;SDS011;44652;49.040;12.126;2022-09-09T02:48:21;7.13;;;5.93;;
58874;SDS011;44652;49.040;12.126;2022-09-09T02:51:08;13.32;;;5.70;;
58874;SDS011;44652;49.040;12.126;2022-09-09T02:56:51;8.82;;;5.28;;
58874;SDS011;44652;49.040;12.126;2022-09-09T02:59:26;7.25;;;5.70;;
58874;SDS011;44652;49.040;12.126;2022-09-09T03:01:53;7.13;;;5.30;;
58874;SDS011;44652;49.040;12.126;2022-09-09T03:04:20;7.75;;;5.90;;
58874;SDS011;44652;49.040;12.126;2022-09-09T03:06:47;9.27;;;5.60;;
58874;SDS011;44652;49.040;12.126;2022-09-09T03:09:18;7.47;;;5.22;;
58874;SDS011;44652;49.040;12.126;2022-09-09T03:11:45;8.55;;;5.60;;
58874;SDS011;44652;49.040;12.126;2022-09-09T03:14:14;9.38;;;5.70;;
58874;SDS011;44652;49.040;12.126;2022-09-09T03:16:40;10.00;;;5.93;;
58874;SDS011;44652;49.040;12.126;2022-09-09T03:19:09;9.48;;;6.40;;
58874;SDS011;44652;49.040;12.126;2022-09-09T03:21:36;9.65;;;7.65;;
58874;SDS011;44652;49.040;12.126;2022-09-09T03:24:03;11.68;;;8.70;;
58874;SDS011;44652;49.040;12.126;2022-09-09T03:26:30;11.00;;;8.75;;
58874;SDS011;44652;49.040;12.126;2022-09-09T03:28:57;13.07;;;8.43;;
58874;SDS011;44652;49.040;12.126;2022-09-09T03:31:28;10.73;;;8.52;;
58874;SDS011;44652;49.040;12.126;2022-09-09T03:33:58;14.75;;;9.93;;
58874;SDS011;44652;49.040;12.126;2022-09-09T03:36:27;11.07;;;9.68;;
58874;SDS011;44652;49.040;12.126;2022-09-09T03:38:54;11.82;;;9.90;;
58874;SDS011;44652;49.040;12.126;2022-09-09T03:41:24;14.70;;;10.63;;
58874;SDS011;44652;49.040;12.126;2022-09-09T03:43:51;11.55;;;10.25;;
58874;SDS011;44652;49.040;12.126;2022-09-09T03:46:19;14.95;;;10.30;;
58874;SDS011;44652;49.040;12.126;2022-09-09T03:48:46;12.50;;;10.00;;
58874;SDS011;44652;49.040;12.126;2022-09-09T03:51:13;11.48;;;10.25;;
58874;SDS011;44652;49.040;12.126;2022-09-09T03:53:42;13.10;;;10.63;;
58874;SDS011;44652;49.040;12.126;2022-09-09T03:56:09;14.02;;;9.82;;
58874;SDS011;44652;49.040;12.126;2022-09-09T03:58:37;11.40;;;9.73;;
58874;SDS011;44652;49.040;12.126;2022-09-09T04:01:08;11.88;;;9.88;;
58874;SDS011;44652;49.040;12.126;2022-09-09T04:03:37;12.43;;;10.70;;
58874;SDS011;44652;49.040;12.126;2022-09-09T04:06:04;11.95;;;10.70;;
58874;SDS011;44652;49.040;12.126;2022-09-09T04:08:33;17.45;;;11.68;;
58874;SDS011;44652;49.040;12.126;2022-09-09T04:11:02;12.25;;;10.90;;
58874;SDS011;44652;49.040;12.126;2022-09-09T04:13:31;14.45;;;11.55;;
58874;SDS011;44652;49.040;12.126;2022-09-09T04:15:59;18.17;;;12.70;;
58874;SDS011;44652;49.040;12.126;2022-09-09T04:18:27;14.23;;;11.35;;
58874;SDS011;44652;49.040;12.126;2022-09-09T04:20:59;12.95;;;11.60;;
58874;SDS011;44652;49.040;12.126;2022-09-09T04:23:28;15.40;;;11.07;;
58874;SDS011;44652;49.040;12.126;2022-09-09T04:28:25;13.35;;;10.52;;
58874;SDS011;44652;49.040;12.126;2022-09-09T04:30:54;13.98;;;11.27;;
58874;SDS011;44652;49.040;12.126;2022-09-09T04:33:23;14.85;;;11.90;;
58874;SDS011;44652;49.040;12.126;2022-09-09T04:35:52;15.02;;;11.35;;
58874;SDS011;44652;49.040;12.126;2022-09-09T04:38:21;16.63;;;12.05;;
58874;SDS011;44652;49.040;12.126;2022-09-09T04:40:50;14.02;;;11.27;;
58874;SDS011;44652;49.040;12.126;2022-09-09T04:43:18;12.85;;;11.15;;
58874;SDS011;44652;49.040;12.126;2022-09-09T04:45:49;15.80;;;11.60;;
58874;SDS011;44652;49.040;12.126;2022-09-09T04:48:19;16.55;;;10.30;;
58874;SDS011;44652;49.040;12.126;2022-09-09T04:50:58;13.43;;;10.38;;
58874;SDS011;44652;49.040;12.126;2022-09-09T04:53:27;12.18;;;9.60;;
58874;SDS011;44652;49.040;12.126;2022-09-09T04:56:01;12.18;;;8.85;;
58874;SDS011;44652;49.040;12.126;2022-09-09T04:58:34;13.00;;;8.65;;
58874;SDS011;44652;49.040;12.126;2022-09-09T05:01:04;13.80;;;9.60;;
58874;SDS011;44652;49.040;12.126;2022-09-09T05:04:02;14.50;;;8.75;;
58874;SDS011;44652;49.040;12.126;2022-09-09T05:06:31;10.23;;;8.00;;
58874;SDS011;44652;49.040;12.126;2022-09-09T05:08:59;11.48;;;7.80;;
58874;SDS011;44652;49.040;12.126;2022-09-09T05:11:29;10.35;;;7.57;;
58874;SDS011;44652;49.040;12.126;2022-09-09T05:14:03;8.95;;;7.53;;
58874;SDS011;44652;49.040;12.126;2022-09-09T05:16:31;11.23;;;8.40;;
58874;SDS011;44652;49.040;12.126;2022-09-09T05:18:58;10.43;;;6.75;;
58874;SDS011;44652;49.040;12.126;2022-09-09T05:21:34;11.82;;;7.57;;
58874;SDS011;44652;49.040;12.126;2022-09-09T05:24:01;9.48;;;7.55;;
58874;SDS011;44652;49.040;12.126;2022-09-09T05:26:27;10.48;;;7.82;;
58874;SDS011;44652;49.040;12.126;2022-09-09T05:28:56;10.95;;;7.78;;
58874;SDS011;44652;49.040;12.126;2022-09-09T05:31:23;16.40;;;8.02;;
58874;SDS011;44652;49.040;12.126;2022-09-09T05:33:52;12.48;;;8.02;;
58874;SDS011;44652;49.040;12.126;2022-09-09T05:36:20;13.85;;;8.00;;
58874;SDS011;44652;49.040;12.126;2022-09-09T05:38:51;13.80;;;8.02;;
58874;SDS011;44652;49.040;12.126;2022-09-09T05:41:20;11.10;;;7.70;;
58874;SDS011;44652;49.040;12.126;2022-09-09T05:43:51;16.15;;;8.02;;
58874;SDS011;44652;49.040;12.126;2022-09-09T05:46:19;12.40;;;7.53;;
58874;SDS011;44652;49.040;12.126;2022-09-09T05:48:50;17.38;;;7.53;;
58874;SDS011;44652;49.040;12.126;2022-09-09T05:51:23;11.40;;;8.13;;
58874;SDS011;44652;49.040;12.126;2022-09-09T05:53:55;13.48;;;8.25;;
58874;SDS011;44652;49.040;12.126;2022-09-09T05:56:27;17.15;;;8.82;;
58874;SDS011;44652;49.040;12.126;2022-09-09T05:58:56;11.40;;;8.02;;
58874;SDS011;44652;49.040;12.126;2022-09-09T06:01:30;14.93;;;8.35;;
58874;SDS011;44652;49.040;12.126;2022-09-09T06:04:00;12.27;;;8.60;;
58874;SDS011;44652;49.040;12.126;2022-09-09T06:06:32;13.77;;;10.77;;
58874;SDS011;44652;49.040;12.126;2022-09-09T06:09:08;13.30;;;10.10;;
58874;SDS011;44652;49.040;12.126;2022-09-09T06:11:39;16.63;;;11.20;;
58874;SDS011;44652;49.040;12.126;2022-09-09T06:14:06;13.88;;;11.25;;
58874;SDS011;44652;49.040;12.126;2022-09-09T06:16:34;14.88;;;11.27;;
58874;SDS011;44652;49.040;12.126;2022-09-09T06:19:01;12.65;;;10.48;;
58874;SDS011;44652;49.040;12.126;2022-09-09T06:21:34;12.35;;;9.88;;
58874;SDS011;44652;49.040;12.126;2022-09-09T06:24:06;10.48;;;9.35;;
58874;SDS011;44652;49.040;12.126;2022-09-09T06:26:35;11.48;;;8.80;;
58874;SDS011;44652;49.040;12.126;2022-09-09T06:29:10;10.57;;;8.23;;
58874;SDS011;44652;49.040;12.126;2022-09-09T06:31:39;12.25;;;8.70;;
58874;SDS011;44652;49.040;12.126;2022-09-09T06:34:12;10.70;;;8.20;;
58874;SDS011;44652;49.040;12.126;2022-09-09T06:36:43;12.95;;;8.80;;
58874;SDS011;44652;49.040;12.126;2022-09-09T06:39:12;13.27;;;7.93;;
58874;SDS011;44652;49.040;12.126;2022-09-09T06:41:40;9.82;;;7.85;;
58874;SDS011;44652;49.040;12.126;2022-09-09T06:44:21;10.02;;;7.72;;
58874;SDS011;44652;49.040;12.126;2022-09-09T06:46:49;10.65;;;7.93;;
58874;SDS011;44652;49.040;12.126;2022-09-09T06:49:16;11.50;;;7.60;;
58874;SDS011;44652;49.040;12.126;2022-09-09T06:51:43;11.40;;;8.02;;
58874;SDS011;44652;49.040;12.126;2022-09-09T06:54:11;10.63;;;7.97;;
58874;SDS011;44652;49.040;12.126;2022-09-09T06:56:42;11.13;;;8.07;;
58874;SDS011;44652;49.040;12.126;2022-09-09T06:59:20;9.75;;;8.30;;
58874;SDS011;44652;49.040;12.126;2022-09-09T07:01:47;9.23;;;6.28;;
58874;SDS011;44652;49.040;12.126;2022-09-09T07:04:20;8.20;;;5.93;;
58874;SDS011;44652;49.040;12.126;2022-09-09T07:06:47;9.32;;;5.93;;
58874;SDS011;44652;49.040;12.126;2022-09-09T07:09:18;8.93;;;6.10;;
58874;SDS011;44652;49.040;12.126;2022-09-09T07:11:49;11.20;;;6.18;;
58874;SDS011;44652;49.040;12.126;2022-09-09T07:14:20;8.65;;;5.80;;
58874;SDS011;44652;49.040;12.126;2022-09-09T07:16:57;9.65;;;6.18;;
58874;SDS011;44652;49.040;12.126;2022-09-09T07:19:27;8.00;;;5.32;;
58874;SDS011;44652;49.040;12.126;2022-09-09T07:21:55;8.27;;;5.18;;
58874;SDS011;44652;49.040;12.126;2022-09-09T07:26:50;6.95;;;4.43;;
58874;SDS011;44652;49.040;12.126;2022-09-09T07:31:47;9.43;;;5.07;;
58874;SDS011;44652;49.040;12.126;2022-09-09T07:34:20;7.38;;;4.90;;
58874;SDS011;44652;49.040;12.126;2022-09-09T07:36:47;7.72;;;4.97;;
58874;SDS011;44652;49.040;12.126;2022-09-09T07:39:16;7.40;;;5.00;;
58874;SDS011;44652;49.040;12.126;2022-09-09T07:41:48;10.18;;;5.57;;
58874;SDS011;44652;49.040;12.126;2022-09-09T07:44:19;12.05;;;6.80;;
58874;SDS011;44652;49.040;12.126;2022-09-09T07:46:58;7.97;;;5.40;;
58874;SDS011;44652;49.040;12.126;2022-09-09T07:49:32;9.00;;;5.00;;
58874;SDS011;44652;49.040;12.126;2022-09-09T07:52:00;8.73;;;5.07;;
58874;SDS011;44652;49.040;12.126;2022-09-09T07:54:27;9.05;;;5.30;;
58874;SDS011;44652;49.040;12.126;2022-09-09T07:56:54;10.27;;;5.38;;
58874;SDS011;44652;49.040;12.126;2022-09-09T07:59:24;7.65;;;5.60;;
58874;SDS011;44652;49.040;12.126;2022-09-09T08:01:53;9.70;;;6.28;;
58874;SDS011;44652;49.040;12.126;2022-09-09T08:04:23;11.85;;;6.38;;
58874;SDS011;44652;49.040;12.126;2022-09-09T08:06:52;7.80;;;5.97;;
58874;SDS011;44652;49.040;12.126;2022-09-09T08:09:24;8.70;;;7.30;;
58874;SDS011;44652;49.040;12.126;2022-09-09T08:11:55;11.13;;;8.23;;
58874;SDS011;44652;49.040;12.126;2022-09-09T08:14:23;8.88;;;7.97;;
58874;SDS011;44652;49.040;12.126;2022-09-09T08:16:50;11.38;;;9.90;;
58874;SDS011;44652;49.040;12.126;2022-09-09T08:19:22;10.48;;;9.07;;
58874;SDS011;44652;49.040;12.126;2022-09-09T08:21:51;12.88;;;9.60;;
58874;SDS011;44652;49.040;12.126;2022-09-09T08:24:17;14.57;;;9.77;;
58874;SDS011;44652;49.040;12.126;2022-09-09T08:26:50;11.43;;;8.95;;
58874;SDS011;44652;49.040;12.126;2022-09-09T08:29:21;9.43;;;7.72;;
58874;SDS011;44652;49.040;12.126;2022-09-09T08:31:48;10.18;;;8.15;;
58874;SDS011;44652;49.040;12.126;2022-09-09T08:34:17;12.98;;;7.65;;
58874;SDS011;44652;49.040;12.126;2022-09-09T08:36:48;15.27;;;9.35;;
58874;SDS011;44652;49.040;12.126;2022-09-09T08:39:18;9.77;;;8.00;;
58874;SDS011;44652;49.040;12.126;2022-09-09T08:53:02;9.15;;;7.25;;
58874;SDS011;44652;49.040;12.126;2022-09-09T08:55:51;11.60;;;7.47;;
58874;SDS011;44652;49.040;12.126;2022-09-09T09:10:15;9.13;;;5.90;;
58874;SDS011;44652;49.040;12.126;2022-09-09T09:13:13;9.23;;;4.75;;
58874;SDS011;44652;49.040;12.126;2022-09-09T09:16:22;8.57;;;4.78;;
58874;SDS011;44652;49.040;12.126;2022-09-09T09:18:55;6.20;;;3.70;;
58874;SDS011;44652;49.040;12.126;2022-09-09T09:21:36;7.30;;;4.43;;
58874;SDS011;44652;49.040;12.126;2022-09-09T09:24:13;6.15;;;4.00;;
58874;SDS011;44652;49.040;12.126;2022-09-09T09:26:47;8.52;;;3.55;;
58874;SDS011;44652;49.040;12.126;2022-09-09T09:29:17;5.65;;;3.92;;
58874;SDS011;44652;49.040;12.126;2022-09-09T09:31:46;7.13;;;4.78;;
58874;SDS011;44652;49.040;12.126;2022-09-09T09:34:25;8.15;;;4.40;;
58874;SDS011;44652;49.040;12.126;2022-09-09T09:36:58;11.30;;;4.70;;
58874;SDS011;44652;49.040;12.126;2022-09-09T09:39:32;7.33;;;4.57;;
58874;SDS011;44652;49.040;12.126;2022-09-09T09:42:24;6.32;;;4.00;;
58874;SDS011;44652;49.040;12.126;2022-09-09T09:44:54;5.38;;;3.53;;
58874;SDS011;44652;49.040;12.126;2022-09-09T09:47:21;6.18;;;3.72;;
58874;SDS011;44652;49.040;12.126;2022-09-09T09:49:59;7.15;;;4.20;;
58874;SDS011;44652;49.040;12.126;2022-09-09T09:52:32;5.22;;;3.80;;
58874;SDS011;44652;49.040;12.126;2022-09-09T09:55:02;5.68;;;3.70;;
58874;SDS011;44652;49.040;12.126;2022-09-09T09:57:33;7.40;;;3.50;;
58874;SDS011;44652;49.040;12.126;2022-09-09T10:02:54;10.75;;;4.60;;
58874;SDS011;44652;49.040;12.126;2022-09-09T10:05:26;7.55;;;3.45;;
58874;SDS011;44652;49.040;12.126;2022-09-09T10:17:25;8.10;;;3.03;;
58874;SDS011;44652;49.040;12.126;2022-09-09T10:32:37;5.50;;;2.30;;
58874;SDS011;44652;49.040;12.126;2022-09-09T10:38:46;4.63;;;2.13;;
58874;SDS011;44652;49.040;12.126;2022-09-09T10:45:49;5.30;;;2.20;;
58874;SDS011;44652;49.040;12.126;2022-09-09T10:49:12;4.05;;;2.40;;
58874;SDS011;44652;49.040;12.126;2022-09-09T10:57:29;11.02;;;2.58;;
58874;SDS011;44652;49.040;12.126;2022-09-09T11:00:22;6.20;;;2.30;;
58874;SDS011;44652;49.040;12.126;2022-09-09T11:03:00;5.18;;;1.95;;
58874;SDS011;44652;49.040;12.126;2022-09-09T11:05:52;6.47;;;1.98;;
58874;SDS011;44652;49.040;12.126;2022-09-09T11:08:24;5.10;;;1.73;;
58874;SDS011;44652;49.040;12.126;2022-09-09T11:11:03;4.88;;;2.00;;
58874;SDS011;44652;49.040;12.126;2022-09-09T11:19:24;6.90;;;2.10;;
58874;SDS011;44652;49.040;12.126;2022-09-09T11:21:53;4.88;;;2.00;;
58874;SDS011;44652;49.040;12.126;2022-09-09T11:27:19;4.70;;;1.90;;
58874;SDS011;44652;49.040;12.126;2022-09-09T11:40:59;3.90;;;1.50;;
58874;SDS011;44652;49.040;12.126;2022-09-09T11:43:44;4.03;;;1.83;;
58874;SDS011;44652;49.040;12.126;2022-09-09T11:46:13;4.57;;;1.75;;
58874;SDS011;44652;49.040;12.126;2022-09-09T11:48:44;4.10;;;1.85;;
58874;SDS011;44652;49.040;12.126;2022-09-09T11:53:53;5.00;;;1.98;;
58874;SDS011;44652;49.040;12.126;2022-09-09T11:56:25;5.68;;;1.65;;
58874;SDS011;44652;49.040;12.126;2022-09-09T11:59:19;8.52;;;2.47;;
58874;SDS011;44652;49.040;12.126;2022-09-09T12:02:00;4.32;;;2.08;;
58874;SDS011;44652;49.040;12.126;2022-09-09T12:04:30;4.78;;;1.92;;
58874;SDS011;44652;49.040;12.126;2022-09-09T12:07:02;4.25;;;1.92;;
58874;SDS011;44652;49.040;12.126;2022-09-09T12:12:44;3.08;;;1.80;;
58874;SDS011;44652;49.040;12.126;2022-09-09T12:17:41;5.47;;;1.90;;
58874;SDS011;44652;49.040;12.126;2022-09-09T12:31:39;15.05;;;1.85;;
58874;SDS011;44652;49.040;12.126;2022-09-09T12:34:30;5.60;;;1.63;;
58874;SDS011;44652;49.040;12.126;2022-09-09T12:39:55;5.38;;;1.58;;
58874;SDS011;44652;49.040;12.126;2022-09-09T12:42:28;4.30;;;1.77;;
58874;SDS011;44652;49.040;12.126;2022-09-09T12:44:59;4.80;;;1.60;;
58874;SDS011;44652;49.040;12.126;2022-09-09T12:47:36;8.05;;;1.77;;
58874;SDS011;44652;49.040;12.126;2022-09-09T12:52:45;5.65;;;1.90;;
58874;SDS011;44652;49.040;12.126;2022-09-09T12:57:44;6.60;;;1.90;;
58874;SDS011;44652;49.040;12.126;2022-09-09T13:00:14;3.70;;;1.73;;
58874;SDS011;44652;49.040;12.126;2022-09-09T13:02:47;4.55;;;1.80;;
58874;SDS011;44652;49.040;12.126;2022-09-09T13:05:17;4.68;;;2.03;;
58874;SDS011;44652;49.040;12.126;2022-09-09T13:07:46;5.40;;;1.45;;
58874;SDS011;44652;49.040;12.126;2022-09-09T13:10:13;3.72;;;1.48;;
58874;SDS011;44652;49.040;12.126;2022-09-09T13:13:01;6.13;;;1.85;;
58874;SDS011;44652;49.040;12.126;2022-09-09T13:15:29;7.97;;;1.70;;
58874;SDS011;44652;49.040;12.126;2022-09-09T13:17:57;4.38;;;1.73;;
58874;SDS011;44652;49.040;12.126;2022-09-09T13:20:27;4.45;;;2.00;;
58874;SDS011;44652;49.040;12.126;2022-09-09T13:22:54;4.43;;;1.80;;
58874;SDS011;44652;49.040;12.126;2022-09-09T13:25:23;4.30;;;1.88;;
58874;SDS011;44652;49.040;12.126;2022-09-09T13:27:59;6.30;;;2.33;;
58874;SDS011;44652;49.040;12.126;2022-09-09T13:30:31;6.60;;;1.88;;
58874;SDS011;44652;49.040;12.126;2022-09-09T13:35:35;4.07;;;1.92;;
58874;SDS011;44652;49.040;12.126;2022-09-09T13:38:15;8.18;;;2.10;;
58874;SDS011;44652;49.040;12.126;2022-09-09T13:40:56;7.25;;;1.92;;
58874;SDS011;44652;49.040;12.126;2022-09-09T13:43:25;5.78;;;2.10;;
58874;SDS011;44652;49.040;12.126;2022-09-09T13:46:03;7.55;;;1.90;;
58874;SDS011;44652;49.040;12.126;2022-09-09T13:48:32;3.95;;;1.90;;
58874;SDS011;44652;49.040;12.126;2022-09-09T13:51:00;7.57;;;1.80;;
58874;SDS011;44652;49.040;12.126;2022-09-09T13:53:30;4.45;;;1.75;;
58874;SDS011;44652;49.040;12.126;2022-09-09T13:55:57;3.70;;;1.73;;
58874;SDS011;44652;49.040;12.126;2022-09-09T13:58:25;4.95;;;1.90;;
58874;SDS011;44652;49.040;12.126;2022-09-09T14:00:53;4.88;;;1.63;;
58874;SDS011;44652;49.040;12.126;2022-09-09T14:03:20;4.72;;;2.00;;
58874;SDS011;44652;49.040;12.126;2022-09-09T14:05:47;8.07;;;1.65;;
58874;SDS011;44652;49.040;12.126;2022-09-09T14:08:16;2.95;;;1.15;;
58874;SDS011;44652;49.040;12.126;2022-09-09T14:10:48;4.40;;;1.02;;
58874;SDS011;44652;49.040;12.126;2022-09-09T14:13:14;3.22;;;1.02;;
58874;SDS011;44652;49.040;12.126;2022-09-09T14:15:41;4.28;;;1.15;;
58874;SDS011;44652;49.040;12.126;2022-09-09T14:18:09;2.97;;;0.80;;
58874;SDS011;44652;49.040;12.126;2022-09-09T14:20:38;3.65;;;1.23;;
58874;SDS011;44652;49.040;12.126;2022-09-09T14:23:05;3.25;;;1.10;;
58874;SDS011;44652;49.040;12.126;2022-09-09T14:25:31;4.55;;;1.20;;
58874;SDS011;44652;49.040;12.126;2022-09-09T14:27:58;4.93;;;1.30;;
58874;SDS011;44652;49.040;12.126;2022-09-09T14:30:25;4.90;;;1.65;;
58874;SDS011;44652;49.040;12.126;2022-09-09T14:32:51;2.13;;;1.10;;
58874;SDS011;44652;49.040;12.126;2022-09-09T14:35:18;2.05;;;1.20;;
58874;SDS011;44652;49.040;12.126;2022-09-09T14:37:44;9.23;;;1.00;;
58874;SDS011;44652;49.040;12.126;2022-09-09T14:40:11;3.85;;;1.02;;
58874;SDS011;44652;49.040;12.126;2022-09-09T14:42:37;1.85;;;0.98;;
58874;SDS011;44652;49.040;12.126;2022-09-09T14:45:04;3.55;;;0.90;;
58874;SDS011;44652;49.040;12.126;2022-09-09T14:47:34;2.30;;;0.98;;
58874;SDS011;44652;49.040;12.126;2022-09-09T14:50:00;4.43;;;1.30;;
58874;SDS011;44652;49.040;12.126;2022-09-09T14:52:29;4.10;;;1.13;;
58874;SDS011;44652;49.040;12.126;2022-09-09T14:54:56;3.92;;;1.10;;
58874;SDS011;44652;49.040;12.126;2022-09-09T14:57:23;3.83;;;1.08;;
58874;SDS011;44652;49.040;12.126;2022-09-09T14:59:49;4.78;;;1.02;;
58874;SDS011;44652;49.040;12.126;2022-09-09T15:02:16;4.25;;;1.23;;
58874;SDS011;44652;49.040;12.126;2022-09-09T15:04:43;2.05;;;0.77;;
58874;SDS011;44652;49.040;12.126;2022-09-09T15:07:10;3.58;;;1.02;;
58874;SDS011;44652;49.040;12.126;2022-09-09T15:09:37;3.70;;;1.13;;
58874;SDS011;44652;49.040;12.126;2022-09-09T15:12:03;3.72;;;1.10;;
58874;SDS011;44652;49.040;12.126;2022-09-09T15:14:30;4.32;;;1.77;;
58874;SDS011;44652;49.040;12.126;2022-09-09T15:16:57;7.65;;;1.20;;
58874;SDS011;44652;49.040;12.126;2022-09-09T15:19:23;6.05;;;1.40;;
58874;SDS011;44652;49.040;12.126;2022-09-09T15:21:50;4.97;;;1.20;;
58874;SDS011;44652;49.040;12.126;2022-09-09T15:24:17;3.88;;;1.00;;
58874;SDS011;44652;49.040;12.126;2022-09-09T15:26:43;3.40;;;1.48;;
58874;SDS011;44652;49.040;12.126;2022-09-09T15:29:10;3.72;;;1.10;;
58874;SDS011;44652;49.040;12.126;2022-09-09T15:31:36;3.30;;;1.10;;
58874;SDS011;44652;49.040;12.126;2022-09-09T15:34:05;1.83;;;0.80;;
58874;SDS011;44652;49.040;12.126;2022-09-09T15:36:34;3.55;;;1.20;;
58874;SDS011;44652;49.040;12.126;2022-09-09T15:39:06;4.63;;;1.15;;
58874;SDS011;44652;49.040;12.126;2022-09-09T15:41:35;3.13;;;1.20;;
58874;SDS011;44652;49.040;12.126;2022-09-09T15:44:02;3.50;;;0.90;;
58874;SDS011;44652;49.040;12.126;2022-09-09T15:46:30;4.72;;;1.15;;
58874;SDS011;44652;49.040;12.126;2022-09-09T15:51:40;5.20;;;1.02;;
58874;SDS011;44652;49.040;12.126;2022-09-09T15:54:11;3.85;;;0.90;;
58874;SDS011;44652;49.040;12.126;2022-09-09T15:56:39;2.65;;;0.95;;
58874;SDS011;44652;49.040;12.126;2022-09-09T15:59:06;4.60;;;1.05;;
58874;SDS011;44652;49.040;12.126;2022-09-09T16:01:33;2.22;;;1.00;;
58874;SDS011;44652;49.040;12.126;2022-09-09T16:04:00;2.70;;;1.13;;
58874;SDS011;44652;49.040;12.126;2022-09-09T16:06:28;4.33;;;0.93;;
58874;SDS011;44652;49.040;12.126;2022-09-09T16:08:56;2.25;;;0.77;;
58874;SDS011;44652;49.040;12.126;2022-09-09T16:11:28;3.92;;;1.00;;
58874;SDS011;44652;49.040;12.126;2022-09-09T16:13:57;4.68;;;0.90;;
58874;SDS011;44652;49.040;12.126;2022-09-09T16:16:25;2.40;;;0.80;;
58874;SDS011;44652;49.040;12.126;2022-09-09T16:18:55;2.42;;;0.80;;
58874;SDS011;44652;49.040;12.126;2022-09-09T16:21:32;1.92;;;0.80;;
58874;SDS011;44652;49.040;12.126;2022-09-09T16:24:01;3.45;;;0.85;;
58874;SDS011;44652;49.040;12.126;2022-09-09T16:31:25;2.85;;;0.95;;
58874;SDS011;44652;49.040;12.126;2022-09-09T16:33:53;2.22;;;0.80;;
58874;SDS011;44652;49.040;12.126;2022-09-09T16:36:25;2.90;;;0.82;;
58874;SDS011;44652;49.040;12.126;2022-09-09T16:38:54;2.83;;;0.77;;
58874;SDS011;44652;49.040;12.126;2022-09-09T16:41:21;2.15;;;0.80;;
58874;SDS011;44652;49.040;12.126;2022-09-09T16:43:51;3.00;;;0.75;;
58874;SDS011;44652;49.040;12.126;2022-09-09T16:46:21;2.55;;;0.90;;
58874;SDS011;44652;49.040;12.126;2022-09-09T16:48:48;1.55;;;0.70;;
58874;SDS011;44652;49.040;12.126;2022-09-09T16:51:16;2.72;;;0.95;;
58874;SDS011;44652;49.040;12.126;2022-09-09T16:53:44;4.75;;;1.08;;
58874;SDS011;44652;49.040;12.126;2022-09-09T16:56:13;1.33;;;0.80;;
58874;SDS011;44652;49.040;12.126;2022-09-09T16:58:54;3.05;;;0.77;;
58874;SDS011;44652;49.040;12.126;2022-09-09T17:01:26;1.33;;;0.90;;
58874;SDS011;44652;49.040;12.126;2022-09-09T17:03:57;0.90;;;0.60;;
58874;SDS011;44652;49.040;12.126;2022-09-09T17:06:27;2.80;;;1.02;;
58874;SDS011;44652;49.040;12.126;2022-09-09T17:08:58;5.35;;;1.20;;
58874;SDS011;44652;49.040;12.126;2022-09-09T17:11:27;3.88;;;0.85;;
58874;SDS011;44652;49.040;12.126;2022-09-09T17:13:54;7.53;;;0.98;;
58874;SDS011;44652;49.040;12.126;2022-09-09T17:16:23;5.35;;;0.80;;
58874;SDS011;44652;49.040;12.126;2022-09-09T17:18:53;2.13;;;0.60;;
58874;SDS011;44652;49.040;12.126;2022-09-09T17:21:22;3.40;;;0.80;;
58874;SDS011;44652;49.040;12.126;2022-09-09T17:23:51;4.13;;;0.90;;
58874;SDS011;44652;49.040;12.126;2022-09-09T17:26:21;2.65;;;0.60;;
58874;SDS011;44652;49.040;12.126;2022-09-09T17:28:48;2.83;;;0.90;;
58874;SDS011;44652;49.040;12.126;2022-09-09T17:31:16;2.95;;;0.80;;